Time;durP1;ratioP1;P1;durP2;ratioP2;P2;SDS_P1;SDS_P2;PMS_P1;PMS_P2;Temp;Humidity;BMP_temperature;BMP_pressure;BME280_temperature;BME280_humidity;BME280_pressure;Samples;Min_cycle;Max_cycle;Signal;HPM_P1;HPM_P2
2021/12/01 00:00:27;;;;;;;17.53;7.43;;;;;;;1.04;58.58;99127.80;126338;1099;104169;-80
2021/12/01 00:03:12;;;;;;;18.73;7.33;;;;;;;1.06;58.64;99133.02;126326;1099;104255;-81
2021/12/01 00:05:43;;;;;;;16.33;7.07;;;;;;;1.07;58.36;99127.05;126371;1099;104634;-81
2021/12/01 00:08:14;;;;;;;15.90;6.90;;;;;;;1.07;58.53;99125.34;126329;1099;104300;-80
2021/12/01 00:10:46;;;;;;;17.50;6.93;;;;;;;1.08;58.81;99121.97;126324;1099;104174;-80
2021/12/01 00:13:20;;;;;;;19.17;7.30;;;;;;;1.07;58.37;99117.59;126379;1099;104692;-80
2021/12/01 00:15:52;;;;;;;17.67;7.12;;;;;;;1.08;58.50;99121.09;126310;1098;104143;-80
2021/12/01 00:18:23;;;;;;;15.03;6.53;;;;;;;1.08;58.48;99121.09;125335;1099;104153;-80
2021/12/01 00:20:53;;;;;;;15.13;6.57;;;;;;;1.08;58.26;99114.21;125345;1099;104377;-80
2021/12/01 00:23:25;;;;;;;16.80;6.83;;;;;;;1.09;58.45;99117.67;125283;1099;104187;-81
2021/12/01 00:25:57;;;;;;;15.20;6.60;;;;;;;1.07;58.43;99117.59;125258;1099;104226;-80
2021/12/01 00:28:27;;;;;;;17.87;7.03;;;;;;;1.05;58.35;99115.77;125353;1099;104201;-80
2021/12/01 00:30:56;;;;;;;15.40;6.60;;;;;;;1.06;58.47;99107.18;125300;1099;104901;-80
2021/12/01 07:00:33;;;;;;;17.10;6.60;;;;;;;3.69;56.89;99166.73;126127;1099;104178;-80
2021/12/01 07:03:09;;;;;;;16.47;6.47;;;;;;;3.71;56.31;99167.68;125360;1099;104149;-79
2021/12/01 07:05:41;;;;;;;14.80;6.53;;;;;;;3.74;56.33;99157.43;126191;1099;104195;-81
2021/12/01 07:08:14;;;;;;;17.03;6.20;;;;;;;3.80;56.70;99174.97;125872;1099;104236;-80
2021/12/01 07:10:47;;;;;;;16.00;6.70;;;;;;;3.85;55.88;99183.82;125975;1099;104178;-83
2021/12/01 07:13:24;;;;;;;16.37;6.20;;;;;;;3.88;56.08;99171.88;126020;1099;104137;-79
2021/12/01 07:16:00;;;;;;;18.80;7.13;;;;;;;3.96;55.94;99167.00;125965;1099;104253;-80
2021/12/01 07:18:40;;;;;;;16.00;6.43;;;;;;;4.05;56.30;99169.06;125792;1099;104213;-80
2021/12/01 07:21:13;;;;;;;17.10;6.90;;;;;;;4.15;56.29;99179.01;125898;1099;104149;-80
2021/12/01 07:23:49;;;;;;;18.93;6.90;;;;;;;4.24;56.01;99173.27;125861;1099;104155;-80
2021/12/01 07:26:30;;;;;;;15.87;6.50;;;;;;;4.33;56.12;99181.43;125811;1099;104191;-79
2021/12/01 07:29:03;;;;;;;15.20;5.60;;;;;;;4.39;56.45;99179.08;125767;1099;104245;-79
2021/12/01 07:31:37;;;;;;;16.53;5.83;;;;;;;4.45;56.22;99186.23;125930;1099;104338;-80
2021/12/01 07:34:10;;;;;;;12.47;4.90;;;;;;;4.49;56.27;99188.13;125912;1099;104342;-80
2021/12/01 07:36:44;;;;;;;13.80;5.60;;;;;;;4.58;56.59;99183.30;125610;1099;104245;-79
2021/12/01 07:39:19;;;;;;;15.63;5.57;;;;;;;4.73;56.41;99193.37;125119;1099;104153;-80
2021/12/01 07:42:00;;;;;;;16.97;6.03;;;;;;;4.78;56.25;99196.14;125633;1099;104310;-81
2021/12/01 07:44:36;;;;;;;15.00;5.70;;;;;;;4.84;55.91;99204.17;125701;1099;102627;-81
2021/12/01 07:47:10;;;;;;;10.38;4.83;;;;;;;4.98;56.12;99218.56;125035;1099;104217;-81
2021/12/01 07:49:45;;;;;;;15.78;5.85;;;;;;;5.14;55.90;99213.94;125855;1099;104191;-81
2021/12/01 07:52:22;;;;;;;14.80;5.33;;;;;;;5.27;54.90;99229.17;125785;1099;104261;-80
2021/12/01 07:54:58;;;;;;;13.23;5.20;;;;;;;5.26;55.79;99224.79;125804;1098;104274;-81
2021/12/01 07:57:30;;;;;;;16.27;5.72;;;;;;;5.28;55.56;99236.13;125924;1099;104281;-81
2021/12/01 08:00:10;;;;;;;15.57;5.90;;;;;;;5.40;55.59;99233.09;125903;1099;101803;-81
2021/12/01 08:02:48;;;;;;;10.80;4.70;;;;;;;5.56;54.06;99238.03;125197;1099;104183;-79
2021/12/01 08:05:34;;;;;;;11.07;4.10;;;;;;;5.68;55.06;99241.88;125768;1099;104221;-81
2021/12/01 08:08:13;;;;;;;8.20;3.57;;;;;;;5.68;54.82;99250.56;125671;1099;104377;-81
2021/12/01 08:10:48;;;;;;;7.30;3.30;;;;;;;5.71;54.79;99245.47;125863;1099;104204;-81
2021/12/01 08:13:27;;;;;;;6.47;3.23;;;;;;;5.72;55.29;99251.58;125919;1099;102160;-81
2021/12/01 08:16:03;;;;;;;6.57;3.30;;;;;;;5.72;55.14;99251.58;125932;1099;104143;-82
2021/12/01 08:19:11;;;;;;;9.33;3.20;;;;;;;5.74;55.44;99257.72;125407;1099;104281;-80
2021/12/01 08:21:56;;;;;;;11.20;2.97;;;;;;;5.76;55.50;99269.05;125973;1099;104265;-81
2021/12/01 08:24:35;;;;;;;7.20;3.27;;;;;;;5.79;55.38;99270.89;125287;1099;102829;-81
2021/12/01 08:27:15;;;;;;;5.33;2.93;;;;;;;5.81;55.28;99267.49;125918;1099;104230;-81
2021/12/01 08:29:55;;;;;;;4.70;2.90;;;;;;;5.86;55.45;99276.37;125780;1098;104262;-81
2021/12/01 08:32:30;;;;;;;;;;;;;;;5.86;55.27;99280.67;125796;1099;104248;-80
2021/12/01 08:35:08;;;;;;;6.43;3.00;;;;;;;5.83;55.31;99281.47;125858;1099;104140;-78
2021/12/01 08:37:51;;;;;;;10.77;3.63;;;;;;;5.83;55.50;99280.56;125803;1099;104169;-80
2021/12/01 08:40:32;;;;;;;12.03;4.07;;;;;;;5.85;55.32;99276.31;125625;1099;104229;-80
2021/12/01 08:43:06;;;;;;;10.60;3.90;;;;;;;5.84;55.26;99288.42;125152;1099;104175;-80
2021/12/01 08:45:44;;;;;;;6.33;3.17;;;;;;;5.82;54.62;99287.50;125679;1099;104198;-80
2021/12/01 08:48:23;;;;;;;5.63;3.20;;;;;;;5.82;55.11;99294.43;125964;1099;104143;-81
2021/12/01 08:51:01;;;;;;;5.47;3.10;;;;;;;5.82;54.55;99299.64;125978;1098;104233;-81
2021/12/01 08:53:37;;;;;;;9.33;3.17;;;;;;;5.82;54.83;99297.03;125815;1099;104227;-83
2021/12/01 08:56:13;;;;;;;7.07;3.00;;;;;;;5.82;54.81;99297.91;125777;1099;104281;-82
2021/12/01 08:58:52;;;;;;;12.93;4.53;;;;;;;5.85;54.79;99294.54;125967;1099;104149;-83
2021/12/01 09:01:27;;;;;;;9.83;3.57;;;;;;;5.83;54.57;99283.16;125846;1099;107416;-81
2021/12/01 09:04:26;;;;;;;9.00;3.43;;;;;;;5.94;54.58;99285.33;125910;1099;104172;-83
2021/12/01 09:07:05;;;;;;;8.27;2.77;;;;;;;5.97;54.38;99300.21;125063;1100;104214;-81
2021/12/01 09:09:40;;;;;;;;;;;;;;;6.01;54.60;99294.26;125101;1102;104300;-81
2021/12/01 09:12:16;;;;;;;6.73;3.00;;;;;;;6.08;54.72;99295.38;124990;1102;104185;-78
2021/12/01 09:14:51;;;;;;;8.20;3.13;;;;;;;6.16;54.80;99290.44;125002;1099;104429;-78
2021/12/01 09:17:28;;;;;;;6.20;2.90;;;;;;;6.24;54.79;99299.37;125096;1098;104152;-77
2021/12/01 09:20:02;;;;;;;5.50;3.20;;;;;;;6.34;54.91;99295.36;125022;1099;104808;-77
2021/12/01 09:22:36;;;;;;;8.23;3.10;;;;;;;6.40;54.59;99306.86;125052;1099;104204;-78
2021/12/01 09:25:09;;;;;;;8.30;2.95;;;;;;;6.44;54.71;99300.92;125070;1099;104348;-78
2021/12/01 09:27:48;;;;;;;7.43;3.27;;;;;;;6.50;54.64;99296.73;125130;1099;104447;-78
2021/12/01 09:30:26;;;;;;;7.07;2.83;;;;;;;6.57;54.85;99294.38;125169;1099;104387;-79
2021/12/01 09:33:00;;;;;;;8.45;3.65;;;;;;;6.75;54.95;99301.05;125730;1099;104201;-78
2021/12/01 09:35:32;;;;;;;10.23;3.83;;;;;;;6.83;54.93;99308.25;125919;1099;104229;-78
2021/12/01 09:38:08;;;;;;;13.50;5.12;;;;;;;6.92;54.69;99305.06;125803;1099;104211;-81
2021/12/01 09:40:49;;;;;;;16.83;6.23;;;;;;;6.96;54.65;99298.20;125607;1099;104155;-79
2021/12/01 09:43:25;;;;;;;18.83;6.07;;;;;;;7.01;54.15;99307.05;125906;1099;101927;-80
2021/12/01 09:46:01;;;;;;;22.10;7.53;;;;;;;7.11;54.31;99301.28;126044;1098;101870;-79
2021/12/01 09:48:38;;;;;;;14.63;5.43;;;;;;;7.22;53.57;99300.73;125912;1099;104169;-79
2021/12/01 09:51:13;;;;;;;11.43;4.07;;;;;;;7.30;53.20;99296.62;125835;1099;104172;-79
2021/12/01 09:54:30;;;;;;;;;;;;;;;;;;;;;
2021/12/01 09:57:13;;;;;;;7.33;3.23;;;;;;;7.49;52.82;99300.64;125980;1099;104227;-79
2021/12/01 09:59:57;;;;;;;5.37;3.00;;;;;;;7.50;51.45;99310.25;126011;1099;104159;-79
2021/12/01 10:02:35;;;;;;;9.47;2.80;;;;;;;7.44;52.02;99305.73;125757;1099;104241;-80
2021/12/01 10:05:09;;;;;;;7.93;3.10;;;;;;;7.39;52.33;99294.28;125082;1099;104738;-81
2021/12/01 10:07:47;;;;;;;8.35;2.87;;;;;;;7.32;51.09;99302.76;125037;1099;104288;-79
2021/12/01 10:10:30;;;;;;;7.50;2.93;;;;;;;7.22;51.42;99295.52;125213;1099;102815;-79
2021/12/01 10:13:04;;;;;;;8.13;2.87;;;;;;;7.09;51.15;99295.14;125083;1099;111584;-81
2021/12/01 10:15:43;;;;;;;8.33;3.00;;;;;;;6.99;51.40;99295.69;125128;1099;104223;-80
2021/12/01 10:18:19;;;;;;;6.97;2.70;;;;;;;6.93;51.66;99317.23;125773;1099;104318;-79
2021/12/01 10:21:06;;;;;;;9.90;2.90;;;;;;;6.95;50.89;99309.47;125751;1099;104278;-78
2021/12/01 10:23:43;;;;;;;8.63;2.80;;;;;;;6.99;50.89;99314.83;125157;1099;104617;-78
2021/12/01 10:26:23;;;;;;;6.20;3.20;;;;;;;7.05;51.27;99316.75;125301;1099;104172;-78
2021/12/01 10:29:02;;;;;;;5.27;2.67;;;;;;;7.12;51.35;99325.64;125885;1099;104310;-79
2021/12/01 10:31:46;;;;;;;5.70;3.10;;;;;;;7.06;50.78;99328.96;125835;1099;102896;-80
2021/12/01 10:34:29;;;;;;;7.63;2.80;;;;;;;7.08;51.39;99342.92;125666;1099;104373;-80
2021/12/01 10:37:22;;;;;;;6.53;2.90;;;;;;;7.11;51.37;99344.76;125773;1099;104211;-79
2021/12/01 10:40:14;;;;;;;5.90;2.63;;;;;;;7.12;50.36;99352.63;125666;1099;104197;-80
2021/12/01 10:42:56;;;;;;;5.50;2.77;;;;;;;7.12;50.84;99351.72;125629;1099;104272;-80
2021/12/01 10:45:38;;;;;;;11.10;3.00;;;;;;;7.15;51.20;99357.04;125625;1099;104236;-79
2021/12/01 10:48:15;;;;;;;5.07;2.50;;;;;;;7.21;51.43;99359.84;125630;1099;104188;-81
2021/12/01 10:50:50;;;;;;;6.90;2.50;;;;;;;7.26;50.11;99365.20;125517;1099;104252;-80
2021/12/01 10:53:30;;;;;;;6.07;2.83;;;;;;;7.29;50.85;99357.47;125567;1099;102018;-79
2021/12/01 10:56:11;;;;;;;5.70;3.00;;;;;;;7.31;49.73;99347.98;125598;1099;104227;-79
2021/12/01 10:58:49;;;;;;;7.87;3.07;;;;;;;7.36;50.04;99357.70;125826;1099;104073;-79
2021/12/01 11:01:26;;;;;;;5.87;2.90;;;;;;;7.36;50.34;99356.83;125852;1099;104265;-81
2021/12/01 11:04:13;;;;;;;5.00;2.50;;;;;;;7.45;50.00;99351.88;125777;1099;104459;-80
2021/12/01 11:06:47;;;;;;;5.50;2.47;;;;;;;7.54;49.56;99373.04;125783;1099;104175;-80
2021/12/01 11:09:22;;;;;;;6.50;3.00;;;;;;;7.62;49.49;99364.53;125717;1099;104258;-79
2021/12/01 11:12:04;;;;;;;5.03;2.60;;;;;;;7.64;49.94;99363.74;125719;1099;104264;-80
2021/12/01 11:14:51;;;;;;;6.50;2.73;;;;;;;7.69;49.82;99363.88;125654;1099;109285;-80
2021/12/01 11:17:42;;;;;;;5.97;2.87;;;;;;;7.71;49.99;99364.80;125610;1099;104158;-79
2021/12/01 11:20:33;;;;;;;5.10;2.83;;;;;;;7.70;48.63;99373.50;125650;1099;104172;-79
2021/12/01 11:23:17;;;;;;;7.30;2.87;;;;;;;7.75;48.92;99384.95;125073;1099;104239;-79
2021/12/01 11:25:57;;;;;;;4.60;2.17;;;;;;;7.74;46.11;99368.41;125733;1099;104197;-78
2021/12/01 11:28:32;;;;;;;5.37;2.40;;;;;;;7.75;47.50;99379.72;125569;1099;104264;-79
2021/12/01 11:31:16;;;;;;;9.97;2.80;;;;;;;7.71;47.88;99381.38;125604;1099;104236;-79
2021/12/01 11:33:59;;;;;;;3.67;2.23;;;;;;;7.66;47.53;99385.55;125619;1099;102711;-79
2021/12/01 11:36:45;;;;;;;6.13;2.30;;;;;;;7.65;47.33;99382.89;125734;1099;104249;-80
2021/12/01 11:39:26;;;;;;;5.23;2.23;;;;;;;7.62;47.32;99391.55;125689;1099;104503;-79
2021/12/01 11:41:59;;;;;;;6.27;1.90;;;;;;;7.56;46.92;99392.23;125692;1099;104198;-80
2021/12/01 11:44:33;;;;;;;4.50;2.13;;;;;;;7.56;46.93;99388.75;125708;1099;104265;-80
2021/12/01 11:47:03;;;;;;;;;;;;;;;7.54;46.22;99399.14;125787;1099;104257;-80
2021/12/01 11:49:43;;;;;;;2.37;1.70;;;;;;;7.58;46.85;99407.07;125907;1099;102791;-80
2021/12/01 11:52:32;;;;;;;7.13;2.00;;;;;;;7.60;46.79;99411.48;125824;1099;104243;-80
2021/12/01 11:55:06;;;;;;;7.07;2.23;;;;;;;7.63;46.71;99395.03;125826;1099;104127;-81
2021/12/01 11:57:43;;;;;;;5.12;2.02;;;;;;;7.66;46.95;99400.34;125981;1099;104153;-80
2021/12/01 12:00:49;;;;;;;3.47;2.10;;;;;;;7.68;47.43;99394.34;125963;1099;104602;-80
2021/12/01 12:03:31;;;;;;;5.00;2.10;;;;;;;7.70;47.03;99395.26;125937;1099;104172;-80
2021/12/01 12:06:23;;;;;;;3.37;2.40;;;;;;;7.71;47.16;99396.13;125766;1099;119161;-79
2021/12/01 12:09:13;;;;;;;3.67;2.27;;;;;;;7.72;47.37;99403.13;125915;1099;104291;-80
2021/12/01 12:11:57;;;;;;;3.50;1.80;;;;;;;7.76;47.50;99417.16;126179;1099;104143;-81
2021/12/01 12:14:33;;;;;;;3.60;2.13;;;;;;;7.76;47.59;99415.45;125922;1099;104140;-78
2021/12/01 12:17:15;;;;;;;4.17;1.93;;;;;;;7.77;46.20;99419.81;125755;1099;104146;-78
2021/12/01 12:20:22;;;;;;;4.87;2.30;;;;;;;7.77;46.63;99422.42;125879;1099;104245;-79
2021/12/01 12:23:10;;;;;;;4.97;2.13;;;;;;;7.81;46.44;99418.20;125875;1099;104468;-78
2021/12/01 12:25:57;;;;;;;4.27;2.10;;;;;;;7.87;46.97;99418.38;125867;1099;104188;-80
2021/12/01 12:28:43;;;;;;;5.03;2.37;;;;;;;7.88;46.10;99423.66;125708;1098;102680;-79
2021/12/01 12:31:31;;;;;;;5.03;1.73;;;;;;;7.91;46.59;99431.55;125824;1099;104180;-77
2021/12/01 12:34:09;;;;;;;3.87;2.27;;;;;;;7.92;45.91;99445.52;125861;1099;104248;-79
2021/12/01 12:36:49;;;;;;;7.87;2.40;;;;;;;7.91;45.87;99441.12;125683;1099;108115;-78
2021/12/01 12:39:33;;;;;;;5.63;2.30;;;;;;;7.87;45.39;99461.05;125901;1099;104165;-79
2021/12/01 12:42:12;;;;;;;5.78;2.50;;;;;;;7.82;46.17;99459.13;125823;1099;104172;-80
2021/12/01 12:44:46;;;;;;;7.57;2.60;;;;;;;7.76;46.94;99462.46;126071;1099;104144;-82
2021/12/01 12:47:22;;;;;;;7.67;2.70;;;;;;;7.72;46.31;99471.03;126053;1099;104226;-79
2021/12/01 12:50:02;;;;;;;6.60;2.30;;;;;;;7.70;46.14;99457.05;126017;1099;104145;-80
2021/12/01 12:52:43;;;;;;;5.20;2.43;;;;;;;7.64;46.87;99462.08;125874;1099;104203;-81
2021/12/01 12:55:49;;;;;;;4.43;2.33;;;;;;;7.60;46.44;99476.75;125995;1099;104171;-80
2021/12/01 12:58:37;;;;;;;4.97;2.40;;;;;;;7.55;46.45;99481.83;126127;1099;105647;-79
2021/12/01 13:01:27;;;;;;;6.47;2.90;;;;;;;7.53;46.89;99491.34;125965;1099;104678;-80
2021/12/01 13:04:05;;;;;;;10.53;3.60;;;;;;;7.42;49.11;99504.87;125787;1099;104309;-79
2021/12/01 13:06:39;;;;;;;8.40;3.80;;;;;;;7.27;49.88;99523.55;125933;1099;104542;-80
2021/12/01 13:09:22;;;;;;;9.23;4.07;;;;;;;7.13;49.93;99525.69;125806;1099;102878;-79
2021/12/01 13:12:02;;;;;;;7.67;3.70;;;;;;;7.02;49.64;99528.80;125786;1099;104210;-80
2021/12/01 13:14:46;;;;;;;10.57;3.30;;;;;;;6.92;50.12;99531.95;125818;1099;104584;-81
2021/12/01 13:17:25;;;;;;;4.87;2.90;;;;;;;6.79;51.41;99542.77;125779;1099;102753;-80
2021/12/01 13:20:14;;;;;;;6.50;2.90;;;;;;;6.66;51.27;99546.67;125917;1099;104172;-79
2021/12/01 13:23:08;;;;;;;6.67;3.20;;;;;;;6.54;51.44;99551.44;125103;1102;104352;-79
2021/12/01 13:25:43;;;;;;;;;;;;;;;6.41;51.51;99564.02;124997;1102;102766;-78
2021/12/01 13:28:26;;;;;;;7.33;3.37;;;;;;;6.35;51.56;99573.33;125052;1102;104230;-78
2021/12/01 13:31:09;;;;;;;9.13;3.80;;;;;;;6.25;51.56;99585.12;124970;1102;104331;-79
2021/12/01 13:34:06;;;;;;;7.73;3.90;;;;;;;6.19;52.79;99604.00;125004;1102;104275;-80
2021/12/01 13:36:49;;;;;;;11.47;4.43;;;;;;;6.09;52.33;99602.77;124969;1099;104227;-81
2021/12/01 13:39:26;;;;;;;13.20;5.50;;;;;;;6.07;52.05;99608.73;125034;1102;102497;-80
2021/12/01 13:42:15;;;;;;;14.85;5.00;;;;;;;6.04;53.03;99613.81;125558;1099;102853;-79
2021/12/01 13:45:03;;;;;;;13.45;4.30;;;;;;;6.00;52.58;99623.23;125662;1099;105105;-79
2021/12/01 13:47:40;;;;;;;16.60;4.30;;;;;;;5.97;52.98;99625.72;125785;1099;104143;-81
2021/12/01 13:50:30;;;;;;;14.90;4.30;;;;;;;5.91;53.92;99628.92;125777;1099;101995;-80
2021/12/01 13:53:29;;;;;;;10.77;4.10;;;;;;;5.86;53.72;99630.45;125666;1099;102220;-80
2021/12/01 13:56:12;;;;;;;8.23;3.27;;;;;;;5.84;54.29;99634.69;125000;1102;105047;-80
2021/12/01 13:59:04;;;;;;;9.97;3.40;;;;;;;5.79;53.57;99640.56;124965;1099;104335;-80
2021/12/01 14:01:56;;;;;;;8.33;3.67;;;;;;;5.71;53.75;99641.12;125020;1098;104414;-78
2021/12/01 14:04:37;;;;;;;7.33;3.10;;;;;;;5.65;53.97;99650.39;124986;1099;104411;-80
2021/12/01 14:07:13;;;;;;;6.97;3.40;;;;;;;5.60;54.41;99651.92;125081;1099;104204;-78
2021/12/01 14:09:57;;;;;;;12.53;4.00;;;;;;;5.54;54.73;99661.23;125029;1099;104481;-79
2021/12/01 14:12:39;;;;;;;12.30;3.63;;;;;;;5.50;55.18;99659.34;124877;1102;104239;-79
2021/12/01 14:15:15;;;;;;;11.33;3.53;;;;;;;5.43;54.68;99659.89;125107;1099;104433;-79
2021/12/01 14:17:48;;;;;;;9.97;3.50;;;;;;;5.37;55.27;99657.91;126022;1099;104201;-80
2021/12/01 14:20:23;;;;;;;7.83;3.63;;;;;;;5.34;55.86;99664.70;126000;1099;104820;-78
2021/12/01 14:22:56;;;;;;;10.28;4.03;;;;;;;5.28;54.82;99661.84;125272;1099;104364;-78
2021/12/01 14:25:32;;;;;;;12.10;3.95;;;;;;;5.26;55.32;99664.37;126046;1099;104146;-78
2021/12/01 14:28:11;;;;;;;15.07;4.60;;;;;;;5.20;55.93;99671.91;126137;1099;103491;-79
2021/12/01 14:30:47;;;;;;;13.00;4.70;;;;;;;5.14;56.68;99677.75;126009;1099;104233;-79
2021/12/01 14:33:24;;;;;;;10.70;4.17;;;;;;;5.11;56.81;99681.90;125843;1099;104257;-80
2021/12/01 14:36:12;;;;;;;11.60;4.80;;;;;;;5.07;56.46;99675.69;125893;1099;104175;-81
2021/12/01 14:38:53;;;;;;;10.00;4.80;;;;;;;5.04;56.97;99679.02;125732;1099;104181;-80
2021/12/01 14:41:35;;;;;;;13.97;5.10;;;;;;;5.01;57.16;99680.61;125983;1098;104198;-80
2021/12/01 14:44:17;;;;;;;15.93;5.30;;;;;;;4.97;57.35;99686.48;125967;1099;101995;-81
2021/12/01 14:46:59;;;;;;;11.27;4.67;;;;;;;4.91;56.70;99686.20;125956;1099;104190;-80
2021/12/01 14:49:43;;;;;;;13.43;4.90;;;;;;;4.90;57.78;99690.52;126208;1099;118976;-80
2021/12/01 14:52:28;;;;;;;11.97;5.30;;;;;;;4.87;57.37;99698.19;126044;1099;104253;-82
2021/12/01 14:55:09;;;;;;;12.53;4.80;;;;;;;4.85;57.29;99697.23;125955;1099;102813;-80
2021/12/01 14:57:51;;;;;;;12.17;5.00;;;;;;;4.83;57.74;99699.77;125209;1099;104277;-81
2021/12/01 15:00:38;;;;;;;19.03;5.73;;;;;;;4.82;57.41;99700.57;125228;1099;102980;-80
2021/12/01 15:03:29;;;;;;;15.03;5.47;;;;;;;4.84;58.07;99713.64;125151;1099;104230;-80
2021/12/01 15:06:15;;;;;;;16.67;6.40;;;;;;;4.83;57.63;99717.96;125166;1099;104226;-79
2021/12/01 15:08:53;;;;;;;15.27;5.30;;;;;;;4.82;57.06;99731.77;125221;1099;104297;-78
2021/12/01 15:11:32;;;;;;;18.50;6.70;;;;;;;4.81;57.67;99724.77;125277;1099;104370;-79
2021/12/01 15:14:31;;;;;;;18.73;6.50;;;;;;;4.78;57.30;99726.35;125212;1102;104300;-79
2021/12/01 15:17:24;;;;;;;16.10;6.17;;;;;;;4.77;57.55;99724.56;125632;1099;104339;-81
2021/12/01 15:20:12;;;;;;;19.50;6.10;;;;;;;4.73;57.39;99728.73;125804;1099;107735;-79
2021/12/01 15:23:07;;;;;;;14.43;6.07;;;;;;;4.70;57.36;99713.00;125555;1099;104398;-79
2021/12/01 15:25:42;;;;;;;18.73;6.77;;;;;;;4.67;56.86;99716.37;125672;1099;104335;-79
2021/12/01 15:28:17;;;;;;;17.83;6.10;;;;;;;4.64;57.60;99724.02;125484;1098;105658;-80
2021/12/01 15:30:50;;;;;;;20.37;7.17;;;;;;;4.61;57.13;99712.57;124948;1100;104190;-82
2021/12/01 15:33:26;;;;;;;22.23;7.30;;;;;;;4.60;57.14;99721.20;124996;1099;102788;-81
2021/12/01 15:36:03;;;;;;;18.10;6.47;;;;;;;4.58;57.32;99718.53;125014;1102;104694;-82
2021/12/01 15:38:40;;;;;;;27.00;7.53;;;;;;;4.55;57.37;99714.88;125134;1099;104169;-81
2021/12/01 15:41:21;;;;;;;22.20;8.13;;;;;;;4.50;57.19;99718.17;125115;1099;104188;-81
2021/12/01 15:44:01;;;;;;;23.37;7.73;;;;;;;4.49;57.34;99715.50;125141;1099;104300;-81
2021/12/01 15:46:39;;;;;;;19.07;7.67;;;;;;;4.45;57.35;99717.04;125099;1099;104175;-81
2021/12/01 15:49:12;;;;;;;20.37;7.10;;;;;;;4.44;57.40;99724.77;125607;1099;102712;-82
2021/12/01 15:51:45;;;;;;;23.10;7.43;;;;;;;4.41;57.59;99729.81;124938;1102;104354;-84
2021/12/01 15:54:19;;;;;;;30.40;7.43;;;;;;;4.37;57.79;99727.91;125060;1102;104348;-84
2021/12/01 15:56:52;;;;;;;26.97;8.30;;;;;;;4.31;58.12;99721.57;124939;1102;104460;-82
2021/12/01 15:59:24;;;;;;;41.93;12.00;;;;;;;4.27;57.63;99727.45;124903;1102;104395;-83
2021/12/01 16:01:55;;;;;;;49.40;14.77;;;;;;;4.21;57.50;99724.56;124755;1102;104275;-83
2021/12/01 16:04:27;;;;;;;44.20;16.67;;;;;;;4.17;57.40;99717.42;125075;1102;104153;-83
2021/12/01 16:06:58;;;;;;;48.13;16.00;;;;;;;4.11;58.35;99720.64;124962;1102;104215;-83
2021/12/01 16:09:32;;;;;;;35.73;15.00;;;;;;;4.10;57.77;99723.16;125059;1102;105305;-83
2021/12/01 16:12:03;;;;;;;;;;;;;;;4.07;57.74;99720.41;124761;1102;104220;-82
2021/12/01 16:14:35;;;;;;;35.87;12.97;;;;;;;4.05;58.20;99729.81;125209;1102;102295;-82
2021/12/01 16:17:08;;;;;;;39.93;13.77;;;;;;;4.05;57.54;99716.83;124992;1102;104172;-82
2021/12/01 16:19:40;;;;;;;35.48;13.03;;;;;;;4.05;57.88;99722.02;124969;1102;104230;-82
2021/12/01 16:22:14;;;;;;;33.27;12.50;;;;;;;4.03;57.89;99726.26;124986;1102;104370;-81
2021/12/01 16:24:46;;;;;;;32.70;12.30;;;;;;;4.03;58.31;99718.47;125652;1099;104165;-81
2021/12/01 16:27:18;;;;;;;36.93;13.57;;;;;;;4.02;58.56;99727.06;125036;1100;104284;-82
2021/12/01 16:29:49;;;;;;;38.53;14.07;;;;;;;4.02;57.70;99737.45;125036;1102;102794;-82
2021/12/01 16:32:21;;;;;;;31.93;12.13;;;;;;;4.03;58.24;99744.42;124990;1102;104185;-82
2021/12/01 16:34:52;;;;;;;45.97;13.00;;;;;;;4.00;58.08;99741.68;124977;1099;104345;-83
2021/12/01 16:37:24;;;;;;;40.70;13.03;;;;;;;4.00;58.74;99742.56;124995;1099;104176;-83
2021/12/01 16:40:08;;;;;;;39.43;12.50;;;;;;;3.99;58.35;99745.08;124967;1099;104398;-83
2021/12/01 16:42:48;;;;;;;33.35;11.95;;;;;;;3.98;57.85;99736.41;125139;1099;104296;-83
2021/12/01 16:45:23;;;;;;;30.50;11.40;;;;;;;3.95;58.48;99737.14;125114;1099;104208;-81
2021/12/01 16:47:56;;;;;;;33.53;13.03;;;;;;;3.94;58.06;99727.59;125067;1099;104345;-83
2021/12/01 16:50:33;;;;;;;35.43;12.10;;;;;;;3.95;58.58;99739.73;125027;1099;104211;-81
2021/12/01 16:53:06;;;;;;;27.93;11.10;;;;;;;3.93;57.84;99738.78;125100;1099;104175;-82
2021/12/01 16:55:38;;;;;;;;;;;;;;;3.92;58.52;99744.77;125108;1099;104178;-81
2021/12/01 16:58:10;;;;;;;30.63;12.60;;;;;;;3.90;58.57;99735.15;125164;1099;104230;-82
2021/12/01 17:00:46;;;;;;;28.17;12.63;;;;;;;3.88;58.29;99737.66;125769;1098;102601;-82
2021/12/01 17:03:24;;;;;;;27.77;12.03;;;;;;;3.87;58.67;99743.66;125883;1099;104181;-82
2021/12/01 17:06:01;;;;;;;31.20;13.97;;;;;;;3.85;58.72;99750.48;125171;1099;104172;-82
2021/12/01 17:08:40;;;;;;;25.50;11.90;;;;;;;3.83;58.79;99756.41;125732;1099;104198;-81
2021/12/01 17:11:14;;;;;;;28.97;12.40;;;;;;;3.78;58.73;99757.05;125833;1100;104229;-81
2021/12/01 17:13:45;;;;;;;;;;;;;;;3.75;59.12;99756.02;125248;1099;104358;-81
2021/12/01 17:16:20;;;;;;;31.07;14.17;;;;;;;3.70;58.72;99757.49;125966;1099;104176;-82
2021/12/01 17:18:54;;;;;;;33.47;13.07;;;;;;;3.66;59.32;99743.48;125926;1099;104310;-82
2021/12/01 17:21:37;;;;;;;34.30;15.15;;;;;;;3.65;58.54;99746.00;125810;1099;104142;-82
2021/12/01 17:24:11;;;;;;;28.80;13.70;;;;;;;3.62;58.91;99741.53;125842;1099;104721;-82
2021/12/01 17:26:42;;;;;;;32.27;14.40;;;;;;;3.60;59.22;99751.83;125888;1098;104150;-82
2021/12/01 17:29:14;;;;;;;31.40;13.17;;;;;;;3.58;59.01;99750.88;125865;1099;104236;-82
2021/12/01 17:31:51;;;;;;;33.83;13.77;;;;;;;3.56;58.95;99752.47;125780;1099;104326;-83
2021/12/01 17:34:23;;;;;;;31.70;14.03;;;;;;;3.52;58.68;99757.42;125820;1099;104208;-81
2021/12/01 17:36:54;;;;;;;31.13;14.23;;;;;;;3.52;58.85;99763.52;126021;1099;104277;-81
2021/12/01 17:39:27;;;;;;;38.97;15.40;;;;;;;3.51;59.32;99760.85;125877;1099;104309;-82
2021/12/01 17:41:59;;;;;;;36.87;13.53;;;;;;;3.46;58.60;99760.61;125775;1099;102705;-82
2021/12/01 17:44:33;;;;;;;29.10;13.70;;;;;;;3.39;59.10;99772.34;125791;1098;104227;-82
2021/12/01 17:47:08;;;;;;;30.03;13.87;;;;;;;3.34;59.37;99780.71;125740;1099;104146;-82
2021/12/01 17:49:40;;;;;;;29.10;13.53;;;;;;;3.32;58.76;99782.31;125821;1099;104191;-82
2021/12/01 17:52:11;;;;;;;28.27;13.53;;;;;;;3.29;59.25;99789.92;125852;1099;104296;-82
2021/12/01 17:54:43;;;;;;;30.40;13.90;;;;;;;3.27;59.47;99786.38;125920;1099;104232;-82
2021/12/01 17:57:14;;;;;;;28.00;13.53;;;;;;;3.22;59.44;99784.41;126205;1099;104158;-82
2021/12/01 17:59:45;;;;;;;32.67;14.50;;;;;;;3.20;59.01;99792.94;126280;1099;104201;-83
2021/12/01 18:02:18;;;;;;;32.23;14.77;;;;;;;3.12;59.29;99797.71;126299;1099;104143;-83
2021/12/01 18:04:50;;;;;;;34.80;14.10;;;;;;;3.06;58.85;99794.78;126273;1099;104156;-83
2021/12/01 18:07:21;;;;;;;30.33;14.27;;;;;;;3.04;59.38;99797.30;125895;1099;104195;-82
2021/12/01 18:09:52;;;;;;;27.17;13.33;;;;;;;3.04;59.61;99789.52;125874;1099;104184;-82
2021/12/01 18:12:24;;;;;;;27.33;12.57;;;;;;;2.99;58.76;99778.02;125807;1099;104249;-82
2021/12/01 18:14:56;;;;;;;33.13;14.40;;;;;;;2.95;59.51;99783.83;125935;1099;104242;-81
2021/12/01 18:17:27;;;;;;;35.93;14.63;;;;;;;2.94;59.78;99782.03;125990;1099;104321;-80
2021/12/01 18:20:03;;;;;;;34.03;14.63;;;;;;;2.94;59.27;99783.75;126036;1099;104300;-80
2021/12/01 18:22:39;;;;;;;33.33;15.60;;;;;;;2.91;59.14;99787.05;126120;1099;104143;-82
2021/12/01 18:25:15;;;;;;;29.80;13.57;;;;;;;2.91;59.27;99801.72;125967;1099;104204;-83
2021/12/01 18:27:49;;;;;;;32.73;14.87;;;;;;;2.90;59.93;99798.25;125954;1099;104576;-83
2021/12/01 18:30:22;;;;;;;30.10;13.80;;;;;;;2.88;60.06;99808.53;126026;1099;104214;-83
2021/12/01 18:32:55;;;;;;;31.53;14.73;;;;;;;2.85;59.14;99810.95;125865;1099;104290;-83
2021/12/01 18:35:28;;;;;;;33.00;15.68;;;;;;;2.84;59.94;99810.87;126129;1098;104207;-82
2021/12/01 18:38:01;;;;;;;32.03;14.63;;;;;;;2.81;59.82;99815.88;126063;1099;104287;-81
2021/12/01 18:40:33;;;;;;;32.40;15.53;;;;;;;2.76;60.05;99810.44;126284;1099;104278;-83